sensor_id;sensor_type;location;lat;lon;timestamp;pressure;altitude;pressure_sealevel;temperature;humidity
76358;BME280;65185;21.060;105.826;2024-02-16T00:00:59;102060.84;;;20.88;100.00
76358;BME280;65185;21.060;105.826;2024-02-16T00:03:26;102059.03;;;20.91;100.00
76358;BME280;65185;21.060;105.826;2024-02-16T00:05:53;102066.00;;;20.92;100.00
76358;BME280;65185;21.060;105.826;2024-02-16T00:08:19;102069.47;;;20.94;100.00
76358;BME280;65185;21.060;105.826;2024-02-16T00:10:46;102066.84;;;20.94;100.00
76358;BME280;65185;21.060;105.826;2024-02-16T00:13:13;102075.56;;;20.96;100.00
76358;BME280;65185;21.060;105.826;2024-02-16T00:15:40;102078.22;;;20.96;100.00
76358;BME280;65185;21.060;105.826;2024-02-16T00:18:06;102074.69;;;20.97;100.00
76358;BME280;65185;21.060;105.826;2024-02-16T00:20:33;102082.56;;;20.98;100.00
76358;BME280;65185;21.060;105.826;2024-02-16T00:22:59;102087.81;;;21.00;100.00
76358;BME280;65185;21.060;105.826;2024-02-16T00:25:26;102083.41;;;21.00;100.00
76358;BME280;65185;21.060;105.826;2024-02-16T00:27:52;102089.50;;;21.02;100.00
76358;BME280;65185;21.060;105.826;2024-02-16T00:30:19;102085.09;;;21.03;100.00
76358;BME280;65185;21.060;105.826;2024-02-16T00:32:47;102092.06;;;21.05;100.00
76358;BME280;65185;21.060;105.826;2024-02-16T00:35:15;102096.44;;;21.06;100.00
76358;BME280;65185;21.060;105.826;2024-02-16T00:37:45;102099.03;;;21.08;100.00
76358;BME280;65185;21.060;105.826;2024-02-16T00:40:12;102098.09;;;21.09;100.00
76358;BME280;65185;21.060;105.826;2024-02-16T00:42:38;102101.56;;;21.11;100.00
76358;BME280;65185;21.060;105.826;2024-02-16T00:45:05;102105.09;;;21.11;100.00
76358;BME280;65185;21.060;105.826;2024-02-16T00:47:31;102109.38;;;21.14;100.00
76358;BME280;65185;21.060;105.826;2024-02-16T00:49:58;102106.75;;;21.14;100.00
76358;BME280;65185;21.060;105.826;2024-02-16T00:52:25;102111.97;;;21.17;100.00
76358;BME280;65185;21.060;105.826;2024-02-16T00:54:51;102121.59;;;21.18;100.00
76358;BME280;65185;21.060;105.826;2024-02-16T00:57:17;102112.84;;;21.17;100.00
76358;BME280;65185;21.060;105.826;2024-02-16T00:59:44;102120.69;;;21.19;100.00
76358;BME280;65185;21.060;105.826;2024-02-16T01:02:10;102118.94;;;21.18;100.00
76358;BME280;65185;21.060;105.826;2024-02-16T01:04:37;102126.81;;;21.19;100.00
76358;BME280;65185;21.060;105.826;2024-02-16T01:07:03;102132.97;;;21.20;100.00
76358;BME280;65185;21.060;105.826;2024-02-16T01:09:29;102131.25;;;21.19;100.00
76358;BME280;65185;21.060;105.826;2024-02-16T01:11:57;102137.38;;;21.19;100.00
76358;BME280;65185;21.060;105.826;2024-02-16T01:14:23;102141.78;;;21.19;100.00
76358;BME280;65185;21.060;105.826;2024-02-16T01:16:50;102138.31;;;21.17;100.00
76358;BME280;65185;21.060;105.826;2024-02-16T01:19:16;102138.25;;;21.20;100.00
76358;BME280;65185;21.060;105.826;2024-02-16T01:21:43;102148.78;;;21.20;100.00
76358;BME280;65185;21.060;105.826;2024-02-16T01:24:13;102154.97;;;21.19;100.00
76358;BME280;65185;21.060;105.826;2024-02-16T01:26:39;102160.25;;;21.19;100.00
76358;BME280;65185;21.060;105.826;2024-02-16T01:29:05;102171.63;;;21.19;100.00
76358;BME280;65185;21.060;105.826;2024-02-16T01:31:32;102164.59;;;21.20;100.00
76358;BME280;65185;21.060;105.826;2024-02-16T01:33:59;102167.22;;;21.20;100.00
76358;BME280;65185;21.060;105.826;2024-02-16T01:36:25;102165.50;;;21.19;100.00
76358;BME280;65185;21.060;105.826;2024-02-16T01:38:51;102171.63;;;21.19;100.00
76358;BME280;65185;21.060;105.826;2024-02-16T01:41:18;102177.78;;;21.20;100.00
76358;BME280;65185;21.060;105.826;2024-02-16T01:43:44;102192.72;;;21.21;100.00
76358;BME280;65185;21.060;105.826;2024-02-16T01:46:10;102184.81;;;21.21;100.00
76358;BME280;65185;21.060;105.826;2024-02-16T01:48:37;102188.31;;;21.20;100.00
76358;BME280;65185;21.060;105.826;2024-02-16T01:51:07;102190.97;;;21.20;100.00
76358;BME280;65185;21.060;105.826;2024-02-16T01:53:35;102190.97;;;21.20;100.00
76358;BME280;65185;21.060;105.826;2024-02-16T01:56:03;102187.44;;;21.21;100.00
76358;BME280;65185;21.060;105.826;2024-02-16T01:58:29;102185.66;;;21.21;100.00
76358;BME280;65185;21.060;105.826;2024-02-16T02:00:55;102184.75;;;21.22;100.00
76358;BME280;65185;21.060;105.826;2024-02-16T02:03:22;102188.25;;;21.23;100.00
76358;BME280;65185;21.060;105.826;2024-02-16T02:05:48;102185.59;;;21.24;100.00
76358;BME280;65185;21.060;105.826;2024-02-16T02:08:16;102180.31;;;21.24;100.00
76358;BME280;65185;21.060;105.826;2024-02-16T02:10:43;102192.47;;;21.28;100.00
76358;BME280;65185;21.060;105.826;2024-02-16T02:13:09;102192.47;;;21.30;100.00
76358;BME280;65185;21.060;105.826;2024-02-16T02:15:36;102193.25;;;21.33;100.00
76358;BME280;65185;21.060;105.826;2024-02-16T02:18:02;102197.63;;;21.34;100.00
76358;BME280;65185;21.060;105.826;2024-02-16T02:20:28;102194.09;;;21.34;100.00
76358;BME280;65185;21.060;105.826;2024-02-16T02:22:55;102193.22;;;21.35;100.00
76358;BME280;65185;21.060;105.826;2024-02-16T02:25:21;102201.06;;;21.36;100.00
76358;BME280;65185;21.060;105.826;2024-02-16T02:27:47;102198.34;;;21.39;100.00
76358;BME280;65185;21.060;105.826;2024-02-16T02:30:14;102197.47;;;21.40;100.00
76358;BME280;65185;21.060;105.826;2024-02-16T02:32:42;102197.41;;;21.42;100.00
76358;BME280;65185;21.060;105.826;2024-02-16T02:35:09;102201.81;;;21.41;100.00
76358;BME280;65185;21.060;105.826;2024-02-16T02:37:35;102206.25;;;21.41;100.00
76358;BME280;65185;21.060;105.826;2024-02-16T02:40:02;102206.31;;;21.38;100.00
76358;BME280;65185;21.060;105.826;2024-02-16T02:42:34;102206.25;;;21.39;100.00
76358;BME280;65185;21.060;105.826;2024-02-16T02:45:01;102205.38;;;21.40;100.00
76358;BME280;65185;21.060;105.826;2024-02-16T02:47:28;102207.06;;;21.43;100.00
76358;BME280;65185;21.060;105.826;2024-02-16T02:49:54;102198.28;;;21.42;100.00
76358;BME280;65185;21.060;105.826;2024-02-16T02:52:23;102200.88;;;21.44;100.00
76358;BME280;65185;21.060;105.826;2024-02-16T02:54:49;102201.75;;;21.44;100.00
76358;BME280;65185;21.060;105.826;2024-02-16T02:57:16;102194.69;;;21.46;100.00
76358;BME280;65185;21.060;105.826;2024-02-16T02:59:42;102196.34;;;21.49;100.00
76358;BME280;65185;21.060;105.826;2024-02-16T03:02:10;102190.13;;;21.51;100.00
76358;BME280;65185;21.060;105.826;2024-02-16T03:04:36;102190.88;;;21.56;100.00
76358;BME280;65185;21.060;105.826;2024-02-16T03:07:02;102190.81;;;21.59;100.00
76358;BME280;65185;21.060;105.826;2024-02-16T03:09:29;102191.59;;;21.61;100.00
76358;BME280;65185;21.060;105.826;2024-02-16T03:11:55;102194.25;;;21.61;100.00
76358;BME280;65185;21.060;105.826;2024-02-16T03:14:21;102189.00;;;21.60;100.00
76358;BME280;65185;21.060;105.826;2024-02-16T03:16:48;102189.00;;;21.60;100.00
76358;BME280;65185;21.060;105.826;2024-02-16T03:19:14;102181.09;;;21.60;100.00
76358;BME280;65185;21.060;105.826;2024-02-16T03:21:40;102167.97;;;21.58;100.00
76358;BME280;65185;21.060;105.826;2024-02-16T03:24:07;102164.50;;;21.56;100.00
76358;BME280;65185;21.060;105.826;2024-02-16T03:26:34;102161.03;;;21.54;100.00
76358;BME280;65185;21.060;105.826;2024-02-16T03:29:00;102156.72;;;21.52;100.00
76358;BME280;65185;21.060;105.826;2024-02-16T03:31:27;102160.25;;;21.51;100.00
76358;BME280;65185;21.060;105.826;2024-02-16T03:33:54;102150.56;;;21.51;100.00
76358;BME280;65185;21.060;105.826;2024-02-16T03:36:21;102162.94;;;21.49;100.00
76358;BME280;65185;21.060;105.826;2024-02-16T03:38:48;102163.81;;;21.50;100.00
76358;BME280;65185;21.060;105.826;2024-02-16T03:41:20;102164.75;;;21.47;100.00
76358;BME280;65185;21.060;105.826;2024-02-16T03:43:47;102161.22;;;21.48;100.00
76358;BME280;65185;21.060;105.826;2024-02-16T03:46:13;102158.56;;;21.48;100.00
76358;BME280;65185;21.060;105.826;2024-02-16T03:48:40;102150.69;;;21.47;100.00
76358;BME280;65185;21.060;105.826;2024-02-16T03:51:06;102146.34;;;21.46;100.00
76358;BME280;65185;21.060;105.826;2024-02-16T03:53:33;102135.00;;;21.42;100.00
76358;BME280;65185;21.060;105.826;2024-02-16T03:56:00;102142.91;;;21.42;100.00
76358;BME280;65185;21.060;105.826;2024-02-16T03:58:26;102142.91;;;21.42;100.00
76358;BME280;65185;21.060;105.826;2024-02-16T04:00:53;102139.41;;;21.42;100.00
76358;BME280;65185;21.060;105.826;2024-02-16T04:03:19;102142.03;;;21.42;100.00
76358;BME280;65185;21.060;105.826;2024-02-16T04:05:45;102138.50;;;21.43;100.00
76358;BME280;65185;21.060;105.826;2024-02-16T04:08:11;102135.94;;;21.40;100.00
76358;BME280;65185;21.060;105.826;2024-02-16T04:10:38;102128.06;;;21.38;100.00
76358;BME280;65185;21.060;105.826;2024-02-16T04:13:04;102133.34;;;21.38;100.00
76358;BME280;65185;21.060;105.826;2024-02-16T04:15:31;102129.84;;;21.38;100.00
76358;BME280;65185;21.060;105.826;2024-02-16T04:17:57;102127.19;;;21.38;100.00
76358;BME280;65185;21.060;105.826;2024-02-16T04:20:24;102120.13;;;21.40;100.00
76358;BME280;65185;21.060;105.826;2024-02-16T04:22:50;102113.03;;;21.42;100.00
76358;BME280;65185;21.060;105.826;2024-02-16T04:25:16;102100.66;;;21.44;100.00
76358;BME280;65185;21.060;105.826;2024-02-16T04:27:43;102097.97;;;21.45;100.00
76358;BME280;65185;21.060;105.826;2024-02-16T04:30:09;102093.50;;;21.49;100.00
76358;BME280;65185;21.060;105.826;2024-02-16T04:32:36;102085.53;;;21.50;100.00
76358;BME280;65185;21.060;105.826;2024-02-16T04:35:02;102067.88;;;21.52;100.00
76358;BME280;65185;21.060;105.826;2024-02-16T04:37:29;102071.34;;;21.54;100.00
76358;BME280;65185;21.060;105.826;2024-02-16T04:39:56;102066.06;;;21.54;100.00
76358;BME280;65185;21.060;105.826;2024-02-16T04:42:22;102058.22;;;21.53;100.00
76358;BME280;65185;21.060;105.826;2024-02-16T04:44:48;102046.84;;;21.51;100.00
76358;BME280;65185;21.060;105.826;2024-02-16T04:47:15;102049.38;;;21.55;100.00
76358;BME280;65185;21.060;105.826;2024-02-16T04:49:41;102043.97;;;21.58;100.00
76358;BME280;65185;21.060;105.826;2024-02-16T04:52:07;102039.47;;;21.62;100.00
76358;BME280;65185;21.060;105.826;2024-02-16T04:54:34;102034.03;;;21.68;100.00
76358;BME280;65185;21.060;105.826;2024-02-16T04:57:02;102018.16;;;21.69;100.00
76358;BME280;65185;21.060;105.826;2024-02-16T04:59:28;102015.41;;;21.74;100.00
76358;BME280;65185;21.060;105.826;2024-02-16T05:01:55;102007.31;;;21.78;100.00
76358;BME280;65185;21.060;105.826;2024-02-16T05:04:21;102010.81;;;21.80;100.00
76358;BME280;65185;21.060;105.826;2024-02-16T05:06:48;102005.34;;;21.87;100.00
76358;BME280;65185;21.060;105.826;2024-02-16T05:09:16;102004.38;;;21.89;100.00
76358;BME280;65185;21.060;105.826;2024-02-16T05:11:45;101991.09;;;21.92;100.00
76358;BME280;65185;21.060;105.826;2024-02-16T05:14:12;101979.44;;;21.99;100.00
76358;BME280;65185;21.060;105.826;2024-02-16T05:16:45;101969.66;;;22.03;100.00
76358;BME280;65185;21.060;105.826;2024-02-16T05:19:11;101959.84;;;22.06;100.00
76358;BME280;65185;21.060;105.826;2024-02-16T05:21:37;101966.00;;;22.07;100.00
76358;BME280;65185;21.060;105.826;2024-02-16T05:24:04;101962.34;;;22.11;100.00
76358;BME280;65185;21.060;105.826;2024-02-16T05:26:31;101954.38;;;22.12;100.00
76358;BME280;65185;21.060;105.826;2024-02-16T05:28:57;101950.91;;;22.10;100.00
76358;BME280;65185;21.060;105.826;2024-02-16T05:31:23;101938.59;;;22.11;100.00
76358;BME280;65185;21.060;105.826;2024-02-16T05:33:50;101938.59;;;22.11;100.00
76358;BME280;65185;21.060;105.826;2024-02-16T05:36:21;101925.47;;;22.08;100.00
76358;BME280;65185;21.060;105.826;2024-02-16T05:38:50;101920.25;;;22.06;100.00
76358;BME280;65185;21.060;105.826;2024-02-16T05:41:17;101929.00;;;22.08;100.00
76358;BME280;65185;21.060;105.826;2024-02-16T05:43:44;101912.19;;;22.11;100.00
76358;BME280;65185;21.060;105.826;2024-02-16T05:46:14;101900.75;;;22.10;100.00
76358;BME280;65185;21.060;105.826;2024-02-16T05:48:40;101895.50;;;22.10;100.00
76358;BME280;65185;21.060;105.826;2024-02-16T05:51:07;101891.88;;;22.13;100.00
76358;BME280;65185;21.060;105.826;2024-02-16T05:53:34;101888.94;;;22.22;100.00
76358;BME280;65185;21.060;105.826;2024-02-16T05:56:01;101879.22;;;22.22;100.00
76358;BME280;65185;21.060;105.826;2024-02-16T05:58:28;101865.31;;;22.17;100.00
76358;BME280;65185;21.060;105.826;2024-02-16T06:00:55;101865.25;;;22.19;100.00
76358;BME280;65185;21.060;105.826;2024-02-16T06:03:21;101862.63;;;22.19;100.00
76358;BME280;65185;21.060;105.826;2024-02-16T06:05:47;101853.94;;;22.15;100.00
76358;BME280;65185;21.060;105.826;2024-02-16T06:08:14;101851.31;;;22.15;100.00
76358;BME280;65185;21.060;105.826;2024-02-16T06:10:45;101848.59;;;22.18;100.00
76358;BME280;65185;21.060;105.826;2024-02-16T06:13:17;101846.69;;;22.22;100.00
76358;BME280;65185;21.060;105.826;2024-02-16T06:15:45;101827.22;;;22.24;100.00
76358;BME280;65185;21.060;105.826;2024-02-16T06:18:12;101831.66;;;22.24;100.00
76358;BME280;65185;21.060;105.826;2024-02-16T06:20:39;101824.53;;;22.26;100.00
76358;BME280;65185;21.060;105.826;2024-02-16T06:23:05;101822.53;;;22.32;100.00
76358;BME280;65185;21.060;105.826;2024-02-16T06:25:32;101813.47;;;22.39;100.00
76358;BME280;65185;21.060;105.826;2024-02-16T06:27:58;101804.66;;;22.40;100.00
76358;BME280;65185;21.060;105.826;2024-02-16T06:30:24;101802.09;;;22.37;100.00
76358;BME280;65185;21.060;105.826;2024-02-16T06:32:51;101794.13;;;22.39;100.00
76358;BME280;65185;21.060;105.826;2024-02-16T06:35:19;101786.91;;;22.44;100.00
76358;BME280;65185;21.060;105.826;2024-02-16T06:37:45;101784.84;;;22.52;100.00
76358;BME280;65185;21.060;105.826;2024-02-16T06:40:12;101783.00;;;22.54;100.00
76358;BME280;65185;21.060;105.826;2024-02-16T06:42:38;101775.63;;;22.63;100.00
76358;BME280;65185;21.060;105.826;2024-02-16T06:45:05;101764.78;;;22.71;100.00
76358;BME280;65185;21.060;105.826;2024-02-16T06:47:32;101759.44;;;22.72;100.00
76358;BME280;65185;21.060;105.826;2024-02-16T06:49:58;101752.38;;;22.73;100.00
76358;BME280;65185;21.060;105.826;2024-02-16T06:52:24;101754.81;;;22.77;100.00
76358;BME280;65185;21.060;105.826;2024-02-16T06:54:51;101748.38;;;22.85;100.00
76358;BME280;65185;21.060;105.826;2024-02-16T06:57:18;101742.19;;;22.86;100.00
76358;BME280;65185;21.060;105.826;2024-02-16T06:59:47;101738.72;;;22.84;100.00
76358;BME280;65185;21.060;105.826;2024-02-16T07:02:13;101736.22;;;22.81;100.00
76358;BME280;65185;21.060;105.826;2024-02-16T07:04:40;101727.44;;;22.80;100.00
76358;BME280;65185;21.060;105.826;2024-02-16T07:07:07;101728.28;;;22.81;100.00
76358;BME280;65185;21.060;105.826;2024-02-16T07:09:34;101717.75;;;22.79;100.00
76358;BME280;65185;21.060;105.826;2024-02-16T07:12:01;101717.66;;;22.82;100.00
76358;BME280;65185;21.060;105.826;2024-02-16T07:14:28;101719.06;;;22.91;100.00
76358;BME280;65185;21.060;105.826;2024-02-16T07:16:54;101721.34;;;23.00;100.00
76358;BME280;65185;21.060;105.826;2024-02-16T07:19:21;101713.03;;;23.09;100.00
76358;BME280;65185;21.060;105.826;2024-02-16T07:21:47;101709.50;;;23.10;100.00
76358;BME280;65185;21.060;105.826;2024-02-16T07:24:14;101705.00;;;23.12;100.00
76358;BME280;65185;21.060;105.826;2024-02-16T07:26:41;101699.22;;;23.02;100.00
76358;BME280;65185;21.060;105.826;2024-02-16T07:29:08;101695.78;;;23.00;100.00
76358;BME280;65185;21.060;105.826;2024-02-16T07:31:35;101686.25;;;22.96;100.00
76358;BME280;65185;21.060;105.826;2024-02-16T07:34:02;101681.16;;;22.92;100.00
76358;BME280;65185;21.060;105.826;2024-02-16T07:36:29;101682.94;;;22.91;100.00
76358;BME280;65185;21.060;105.826;2024-02-16T07:38:56;101683.84;;;22.90;100.00
76358;BME280;65185;21.060;105.826;2024-02-16T07:41:22;101680.47;;;22.87;100.00
76358;BME280;65185;21.060;105.826;2024-02-16T07:43:48;101673.59;;;22.83;100.00
76358;BME280;65185;21.060;105.826;2024-02-16T07:46:14;101668.41;;;22.79;100.00
76358;BME280;65185;21.060;105.826;2024-02-16T07:48:41;101668.03;;;22.89;100.00
76358;BME280;65185;21.060;105.826;2024-02-16T07:51:07;101666.09;;;22.94;100.00
76358;BME280;65185;21.060;105.826;2024-02-16T07:53:34;101661.34;;;23.02;100.00
76358;BME280;65185;21.060;105.826;2024-02-16T07:56:00;101663.31;;;22.97;100.00
76358;BME280;65185;21.060;105.826;2024-02-16T07:58:26;101661.72;;;22.93;100.00
76358;BME280;65185;21.060;105.826;2024-02-16T08:00:53;101659.22;;;22.90;100.00
76358;BME280;65185;21.060;105.826;2024-02-16T08:03:21;101664.38;;;22.93;100.00
76358;BME280;65185;21.060;105.826;2024-02-16T08:05:47;101669.66;;;22.93;100.00
76358;BME280;65185;21.060;105.826;2024-02-16T08:08:13;101661.91;;;22.88;100.00
76358;BME280;65185;21.060;105.826;2024-02-16T08:10:40;101657.75;;;22.83;100.00
76358;BME280;65185;21.060;105.826;2024-02-16T08:13:06;101652.56;;;22.79;100.00
76358;BME280;65185;21.060;105.826;2024-02-16T08:15:32;101653.56;;;22.77;100.00
76358;BME280;65185;21.060;105.826;2024-02-16T08:17:59;101658.84;;;22.77;100.00
76358;BME280;65185;21.060;105.826;2024-02-16T08:20:25;101652.78;;;22.75;100.00
76358;BME280;65185;21.060;105.826;2024-02-16T08:22:51;101650.84;;;22.78;100.00
76358;BME280;65185;21.060;105.826;2024-02-16T08:25:17;101644.56;;;22.81;100.00
76358;BME280;65185;21.060;105.826;2024-02-16T08:27:44;101633.16;;;22.81;100.00
76358;BME280;65185;21.060;105.826;2024-02-16T08:30:11;101635.81;;;22.81;100.00
76358;BME280;65185;21.060;105.826;2024-02-16T08:32:37;101631.34;;;22.81;100.00
76358;BME280;65185;21.060;105.826;2024-02-16T08:35:04;101632.66;;;22.93;100.00
76358;BME280;65185;21.060;105.826;2024-02-16T08:37:30;101632.56;;;22.94;100.00
76358;BME280;65185;21.060;105.826;2024-02-16T08:42:22;101622.69;;;22.99;100.00
76358;BME280;65185;21.060;105.826;2024-02-16T08:44:49;101620.09;;;22.98;100.00
76358;BME280;65185;21.060;105.826;2024-02-16T08:47:15;101623.59;;;22.98;100.00
76358;BME280;65185;21.060;105.826;2024-02-16T08:49:42;101623.44;;;23.03;100.00
76358;BME280;65185;21.060;105.826;2024-02-16T08:52:08;101623.53;;;23.00;100.00
76358;BME280;65185;21.060;105.826;2024-02-16T08:54:34;101622.94;;;22.93;100.00
76358;BME280;65185;21.060;105.826;2024-02-16T08:57:02;101614.22;;;22.91;100.00
76358;BME280;65185;21.060;105.826;2024-02-16T08:59:29;101619.44;;;22.93;100.00
76358;BME280;65185;21.060;105.826;2024-02-16T09:01:56;101619.91;;;23.02;100.00
76358;BME280;65185;21.060;105.826;2024-02-16T09:04:24;101619.19;;;22.99;100.00
76358;BME280;65185;21.060;105.826;2024-02-16T09:06:50;101623.47;;;23.01;100.00
76358;BME280;65185;21.060;105.826;2024-02-16T09:09:17;101622.25;;;23.10;100.00
76358;BME280;65185;21.060;105.826;2024-02-16T09:11:44;101618.56;;;23.14;100.00
76358;BME280;65185;21.060;105.826;2024-02-16T09:14:10;101613.38;;;23.11;100.00
76358;BME280;65185;21.060;105.826;2024-02-16T09:16:36;101612.47;;;23.12;100.00
76358;BME280;65185;21.060;105.826;2024-02-16T09:19:02;101613.44;;;23.09;100.00
76358;BME280;65185;21.060;105.826;2024-02-16T09:21:29;101612.25;;;23.16;100.00
76358;BME280;65185;21.060;105.826;2024-02-16T09:23:55;101613.13;;;23.17;100.00
76358;BME280;65185;21.060;105.826;2024-02-16T09:26:27;101624.81;;;23.11;100.00
76358;BME280;65185;21.060;105.826;2024-02-16T09:28:59;101619.38;;;23.14;100.00
76358;BME280;65185;21.060;105.826;2024-02-16T09:31:25;101622.91;;;23.15;100.00
76358;BME280;65185;21.060;105.826;2024-02-16T09:33:52;101619.47;;;23.13;100.00
76358;BME280;65185;21.060;105.826;2024-02-16T09:36:19;101620.56;;;23.07;100.00
76358;BME280;65185;21.060;105.826;2024-02-16T09:38:46;101608.47;;;23.02;100.00
76358;BME280;65185;21.060;105.826;2024-02-16T09:41:13;101607.03;;;23.15;100.00
76358;BME280;65185;21.060;105.826;2024-02-16T09:43:41;101611.59;;;23.11;100.00
76358;BME280;65185;21.060;105.826;2024-02-16T09:46:08;101604.38;;;23.15;100.00
76358;BME280;65185;21.060;105.826;2024-02-16T09:48:36;101597.44;;;23.12;100.00
76358;BME280;65185;21.060;105.826;2024-02-16T09:51:02;101595.72;;;23.11;100.00
76358;BME280;65185;21.060;105.826;2024-02-16T09:53:29;101593.16;;;23.10;100.00
76358;BME280;65185;21.060;105.826;2024-02-16T09:55:55;101601.97;;;23.10;100.00
76358;BME280;65185;21.060;105.826;2024-02-16T09:58:22;101601.16;;;23.08;100.00
76358;BME280;65185;21.060;105.826;2024-02-16T10:00:55;101605.56;;;23.08;100.00
76358;BME280;65185;21.060;105.826;2024-02-16T10:05:50;101605.34;;;23.14;100.00
76358;BME280;65185;21.060;105.826;2024-02-16T10:08:18;101613.38;;;23.11;100.00
76358;BME280;65185;21.060;105.826;2024-02-16T10:10:44;101617.81;;;23.10;100.00
76358;BME280;65185;21.060;105.826;2024-02-16T10:13:10;101610.13;;;23.04;100.00
76358;BME280;65185;21.060;105.826;2024-02-16T10:15:37;101622.50;;;23.04;100.00
76358;BME280;65185;21.060;105.826;2024-02-16T10:20:33;101617.81;;;23.10;100.00
76358;BME280;65185;21.060;105.826;2024-02-16T10:23:07;101613.38;;;23.11;100.00
76358;BME280;65185;21.060;105.826;2024-02-16T10:25:38;101619.59;;;23.10;100.00
76358;BME280;65185;21.060;105.826;2024-02-16T10:28:10;101614.69;;;23.01;100.00
76358;BME280;65185;21.060;105.826;2024-02-16T10:30:41;101615.09;;;22.92;100.00
76358;BME280;65185;21.060;105.826;2024-02-16T10:33:11;101620.38;;;22.92;100.00
76358;BME280;65185;21.060;105.826;2024-02-16T10:35:41;101626.19;;;23.00;100.00
76358;BME280;65185;21.060;105.826;2024-02-16T10:38:09;101625.38;;;22.98;100.00
76358;BME280;65185;21.060;105.826;2024-02-16T10:40:39;101629.69;;;23.00;100.00
76358;BME280;65185;21.060;105.826;2024-02-16T10:43:06;101630.56;;;23.01;100.00
76358;BME280;65185;21.060;105.826;2024-02-16T10:45:37;101626.44;;;22.94;100.00
76358;BME280;65185;21.060;105.826;2024-02-16T10:48:05;101633.31;;;22.98;100.00
76358;BME280;65185;21.060;105.826;2024-02-16T10:50:36;101635.22;;;22.94;100.00
76358;BME280;65185;21.060;105.826;2024-02-16T10:55:44;101636.47;;;22.86;100.00
76358;BME280;65185;21.060;105.826;2024-02-16T10:58:13;101632.16;;;22.83;100.00
76358;BME280;65185;21.060;105.826;2024-02-16T11:00:52;101630.00;;;22.93;100.00
76358;BME280;65185;21.060;105.826;2024-02-16T11:03:23;101637.03;;;22.94;100.00
76358;BME280;65185;21.060;105.826;2024-02-16T11:05:50;101636.41;;;22.87;100.00
76358;BME280;65185;21.060;105.826;2024-02-16T11:08:19;101633.03;;;22.84;100.00
76358;BME280;65185;21.060;105.826;2024-02-16T11:10:55;101633.03;;;22.84;100.00
76358;BME280;65185;21.060;105.826;2024-02-16T11:13:26;101638.75;;;22.73;100.00
76358;BME280;65185;21.060;105.826;2024-02-16T11:16:03;101629.03;;;22.73;100.00
76358;BME280;65185;21.060;105.826;2024-02-16T11:18:31;101638.75;;;22.73;100.00
76358;BME280;65185;21.060;105.826;2024-02-16T11:21:04;101638.13;;;22.66;100.00
76358;BME280;65185;21.060;105.826;2024-02-16T11:23:31;101639.13;;;22.64;100.00
76358;BME280;65185;21.060;105.826;2024-02-16T11:26:11;101635.69;;;22.62;100.00
76358;BME280;65185;21.060;105.826;2024-02-16T11:28:40;101639.28;;;22.59;100.00
76358;BME280;65185;21.060;105.826;2024-02-16T11:31:07;101644.03;;;22.50;100.00
76358;BME280;65185;21.060;105.826;2024-02-16T11:33:34;101657.25;;;22.50;100.00
76358;BME280;65185;21.060;105.826;2024-02-16T11:36:02;101647.34;;;22.56;100.00
76358;BME280;65185;21.060;105.826;2024-02-16T11:38:32;101649.22;;;22.53;100.00
76358;BME280;65185;21.060;105.826;2024-02-16T11:40:59;101657.22;;;22.51;100.00
76358;BME280;65185;21.060;105.826;2024-02-16T11:43:26;101663.53;;;22.47;100.00
76358;BME280;65185;21.060;105.826;2024-02-16T11:45:53;101664.34;;;22.49;100.00
76358;BME280;65185;21.060;105.826;2024-02-16T11:48:23;101655.47;;;22.50;100.00
76358;BME280;65185;21.060;105.826;2024-02-16T11:51:02;101658.13;;;22.50;100.00
76358;BME280;65185;21.060;105.826;2024-02-16T11:53:30;101663.25;;;22.53;100.00
76358;BME280;65185;21.060;105.826;2024-02-16T11:55:57;101667.44;;;22.60;100.00
76358;BME280;65185;21.060;105.826;2024-02-16T11:58:24;101676.16;;;22.62;100.00
76358;BME280;65185;21.060;105.826;2024-02-16T12:00:51;101671.00;;;22.59;100.00
76358;BME280;65185;21.060;105.826;2024-02-16T12:03:24;101673.91;;;22.52;100.00
76358;BME280;65185;21.060;105.826;2024-02-16T12:05:57;101665.59;;;22.39;100.00
76358;BME280;65185;21.060;105.826;2024-02-16T12:08:31;101662.06;;;22.39;100.00
76358;BME280;65185;21.060;105.826;2024-02-16T12:10:57;101679.72;;;22.38;100.00
76358;BME280;65185;21.060;105.826;2024-02-16T12:13:24;101677.44;;;22.29;100.00
76358;BME280;65185;21.060;105.826;2024-02-16T12:15:51;101673.88;;;22.30;100.00
76358;BME280;65185;21.060;105.826;2024-02-16T12:18:27;101680.09;;;22.28;100.00
76358;BME280;65185;21.060;105.826;2024-02-16T12:21:05;101689.56;;;22.33;100.00
76358;BME280;65185;21.060;105.826;2024-02-16T12:23:32;101684.66;;;22.24;100.00
76358;BME280;65185;21.060;105.826;2024-02-16T12:25:59;101692.56;;;22.24;100.00
76358;BME280;65185;21.060;105.826;2024-02-16T12:28:27;101690.88;;;22.23;100.00
76358;BME280;65185;21.060;105.826;2024-02-16T12:30:55;101700.69;;;22.20;100.00